createdAt,value
2023-03-06T00:13:32.175Z,0.21
2023-03-06T00:16:02.954Z,0.19
2023-03-06T00:18:30.779Z,0.19
2023-03-06T00:20:58.758Z,0.20
2023-03-06T00:23:27.635Z,0.20
2023-03-06T00:25:55.496Z,0.20
2023-03-06T00:28:23.539Z,0.21
2023-03-06T00:30:51.417Z,0.24
2023-03-06T00:33:19.280Z,0.27
2023-03-06T00:35:47.037Z,0.31
2023-03-06T00:38:15.007Z,0.33
2023-03-06T00:40:42.978Z,0.37
2023-03-06T00:43:10.963Z,0.40
2023-03-06T00:45:38.782Z,0.44
2023-03-06T00:48:06.632Z,0.48
2023-03-06T00:50:35.321Z,0.52
2023-03-06T00:53:03.154Z,0.55
2023-03-06T00:55:31.309Z,0.59
2023-03-06T00:57:59.092Z,0.61
2023-03-06T01:00:27.934Z,0.63
2023-03-06T01:02:56.111Z,0.64
2023-03-06T01:05:24.840Z,0.65
2023-03-06T01:07:52.712Z,0.67
2023-03-06T01:10:20.560Z,0.70
2023-03-06T01:12:48.992Z,0.74
2023-03-06T01:15:16.744Z,0.79
2023-03-06T01:17:44.777Z,0.84
2023-03-06T01:20:17.629Z,0.88
2023-03-06T01:22:45.454Z,0.92
2023-03-06T01:25:13.278Z,0.96
2023-03-06T01:27:41.329Z,1.00
2023-03-06T01:30:11.788Z,1.03
2023-03-06T01:32:39.714Z,1.07
2023-03-06T01:35:08.280Z,1.10
2023-03-06T01:37:36.873Z,1.10
2023-03-06T01:40:05.299Z,1.12
2023-03-06T01:42:33.099Z,1.15
2023-03-06T01:45:02.499Z,1.17
2023-03-06T01:47:30.268Z,1.18
2023-03-06T01:50:00.159Z,1.20
2023-03-06T01:52:33.177Z,1.21
2023-03-06T01:55:03.173Z,1.23
2023-03-06T01:57:37.937Z,1.24
2023-03-06T02:00:08.399Z,1.25
2023-03-06T02:02:45.251Z,1.29
2023-03-06T02:05:13.262Z,1.31
2023-03-06T02:07:42.408Z,1.32
2023-03-06T02:10:14.629Z,1.33
2023-03-06T02:12:43.827Z,1.35
2023-03-06T02:15:12.540Z,1.39
2023-03-06T02:17:41.678Z,1.42
2023-03-06T02:20:12.255Z,1.44
2023-03-06T02:22:50.146Z,1.46
2023-03-06T02:25:32.920Z,1.48
2023-03-06T02:28:01.431Z,1.49
2023-03-06T02:30:29.318Z,1.51
2023-03-06T02:32:57.523Z,1.53
2023-03-06T02:35:33.909Z,1.54
2023-03-06T02:38:04.622Z,1.55
2023-03-06T02:40:32.562Z,1.55
2023-03-06T02:43:01.726Z,1.54
2023-03-06T02:45:35.724Z,1.52
2023-03-06T02:48:04.282Z,1.55
2023-03-06T02:50:32.333Z,1.58
2023-03-06T02:53:00.054Z,1.59
2023-03-06T02:55:27.849Z,1.60
2023-03-06T02:57:55.804Z,1.62
2023-03-06T03:00:24.379Z,1.64
2023-03-06T03:02:52.830Z,1.67
2023-03-06T03:05:21.378Z,1.68
2023-03-06T03:07:54.293Z,1.70
2023-03-06T03:10:22.083Z,1.71
2023-03-06T03:12:51.073Z,1.73
2023-03-06T03:15:19.242Z,1.75
2023-03-06T03:17:47.017Z,1.76
2023-03-06T03:20:17.012Z,1.79
2023-03-06T03:22:51.743Z,1.82
2023-03-06T03:25:20.098Z,1.86
2023-03-06T03:27:48.266Z,1.89
2023-03-06T03:30:16.317Z,1.90
2023-03-06T03:32:44.380Z,1.92
2023-03-06T03:35:13.053Z,1.95
2023-03-06T03:37:41.648Z,1.98
2023-03-06T03:40:10.489Z,2.00
2023-03-06T03:42:38.538Z,2.03
2023-03-06T03:45:06.734Z,2.06
2023-03-06T03:47:34.555Z,2.08
2023-03-06T03:50:03.735Z,2.12
2023-03-06T03:52:31.608Z,2.17
2023-03-06T03:54:59.743Z,2.20
2023-03-06T03:57:28.122Z,2.23
2023-03-06T03:59:56.602Z,2.25
2023-03-06T04:02:41.576Z,2.28
2023-03-06T04:05:16.174Z,2.32
2023-03-06T04:07:44.105Z,2.35
2023-03-06T04:10:12.515Z,2.38
2023-03-06T04:12:40.685Z,2.39
2023-03-06T04:15:10.060Z,2.40
2023-03-06T04:17:38.333Z,2.42
2023-03-06T04:20:08.297Z,2.45
2023-03-06T04:22:37.488Z,2.46
2023-03-06T04:25:05.932Z,2.48
2023-03-06T04:27:33.770Z,2.50
2023-03-06T04:30:01.646Z,2.51
2023-03-06T04:32:30.726Z,2.51
2023-03-06T04:34:59.133Z,2.52
2023-03-06T04:37:28.922Z,2.52
2023-03-06T04:39:57.714Z,2.52
2023-03-06T04:42:25.474Z,2.53
2023-03-06T04:44:53.713Z,2.51
2023-03-06T04:47:21.543Z,2.52
2023-03-06T04:49:49.349Z,2.51
2023-03-06T04:52:17.112Z,2.51
2023-03-06T04:54:46.090Z,2.48
2023-03-06T04:57:14.300Z,2.42
2023-03-06T04:59:42.134Z,2.40
2023-03-06T05:02:09.967Z,2.39
2023-03-06T05:04:37.731Z,2.39
2023-03-06T05:07:05.571Z,2.38
2023-03-06T05:09:33.789Z,2.38
2023-03-06T05:12:01.970Z,2.37
2023-03-06T05:14:30.434Z,2.37
2023-03-06T05:16:58.295Z,2.37
2023-03-06T05:19:26.064Z,2.39
2023-03-06T05:21:53.833Z,2.40
2023-03-06T05:24:21.591Z,2.40
2023-03-06T05:26:49.787Z,2.40
2023-03-06T05:29:17.593Z,2.41
2023-03-06T05:31:45.750Z,2.40
2023-03-06T05:34:14.421Z,2.42
2023-03-06T05:36:42.875Z,2.42
2023-03-06T05:39:10.606Z,2.42
2023-03-06T05:41:38.351Z,2.41
2023-03-06T05:44:06.166Z,2.42
2023-03-06T05:46:33.892Z,2.44
2023-03-06T05:49:01.876Z,2.45
2023-03-06T05:51:29.707Z,2.49
2023-03-06T05:53:57.452Z,2.53
2023-03-06T05:56:25.292Z,2.56
2023-03-06T05:58:53.065Z,2.61
2023-03-06T06:01:21.142Z,2.66
2023-03-06T06:03:49.036Z,2.70
2023-03-06T06:06:17.014Z,2.75
2023-03-06T06:08:44.754Z,2.80
2023-03-06T06:11:13.169Z,2.86
2023-03-06T06:13:40.926Z,2.91
2023-03-06T06:16:09.766Z,2.96
2023-03-06T06:18:41.035Z,3.03
2023-03-06T06:21:10.374Z,3.14
2023-03-06T06:23:38.202Z,3.25
2023-03-06T06:26:06.852Z,3.35
2023-03-06T06:28:35.132Z,3.44
2023-03-06T06:31:12.743Z,3.52
2023-03-06T06:33:41.049Z,3.59
2023-03-06T06:36:15.873Z,3.66
2023-03-06T06:38:43.701Z,3.74
2023-03-06T06:41:38.988Z,3.76
2023-03-06T06:43:59.627Z,3.80
2023-03-06T06:47:10.868Z,3.89
2023-03-06T06:49:16.350Z,4.03
2023-03-06T06:51:44.170Z,4.16
2023-03-06T06:54:12.219Z,4.22
2023-03-06T06:56:40.118Z,4.26
2023-03-06T06:59:16.460Z,4.31
2023-03-06T07:02:44.689Z,4.44
2023-03-06T07:05:12.800Z,4.52
2023-03-06T07:07:40.721Z,4.65
2023-03-06T07:10:13.809Z,4.77
2023-03-06T07:12:42.171Z,4.87
2023-03-06T07:15:13.562Z,5.15
2023-03-06T07:17:41.451Z,5.39
2023-03-06T07:20:10.625Z,5.65
2023-03-06T07:22:50.480Z,5.82
2023-03-06T07:25:20.373Z,5.87
2023-03-06T07:27:53.886Z,5.86
2023-03-06T07:30:23.352Z,5.85
2023-03-06T07:32:56.244Z,5.88
2023-03-06T07:35:25.729Z,5.92
2023-03-06T07:37:53.946Z,5.96
2023-03-06T07:40:22.644Z,6.00
2023-03-06T07:42:54.802Z,6.08
2023-03-06T07:45:27.164Z,6.17
2023-03-06T07:47:55.097Z,6.24
2023-03-06T07:50:23.052Z,6.26
2023-03-06T07:52:51.393Z,6.32
2023-03-06T07:55:19.675Z,6.41
2023-03-06T07:57:50.706Z,6.51
2023-03-06T08:00:19.233Z,6.61
2023-03-06T08:02:47.306Z,6.73
2023-03-06T08:05:17.252Z,6.84
2023-03-06T08:07:45.775Z,6.95
2023-03-06T08:10:16.775Z,7.08
2023-03-06T08:12:44.858Z,7.23
2023-03-06T08:15:13.933Z,7.35
2023-03-06T08:17:41.893Z,7.41
2023-03-06T08:20:10.799Z,7.48
2023-03-06T08:22:39.160Z,7.53
2023-03-06T08:25:08.177Z,7.63
2023-03-06T08:27:36.725Z,7.71
2023-03-06T08:30:09.456Z,7.78
2023-03-06T08:32:37.890Z,7.82
2023-03-06T08:35:06.205Z,7.84
2023-03-06T08:37:34.141Z,7.85
2023-03-06T08:40:04.771Z,7.88
2023-03-06T08:42:32.841Z,7.88
2023-03-06T08:45:00.753Z,7.97
2023-03-06T08:47:29.019Z,8.03
2023-03-06T08:50:00.183Z,8.09
2023-03-06T08:52:28.546Z,8.18
2023-03-06T08:54:57.976Z,8.29
2023-03-06T08:57:25.860Z,8.39
2023-03-06T08:59:53.742Z,8.44
2023-03-06T09:02:21.622Z,8.52
2023-03-06T09:04:49.559Z,8.68
2023-03-06T09:07:17.455Z,8.83
2023-03-06T09:09:45.415Z,8.94
2023-03-06T09:12:13.262Z,9.02
2023-03-06T09:14:41.192Z,9.11
2023-03-06T09:17:09.083Z,9.15
2023-03-06T09:19:37.703Z,9.17
2023-03-06T09:22:05.644Z,9.19
2023-03-06T09:24:33.644Z,9.26
2023-03-06T09:27:02.163Z,9.30
2023-03-06T09:29:30.103Z,9.28
2023-03-06T09:31:58.603Z,9.30
2023-03-06T09:34:27.764Z,9.33
2023-03-06T09:36:57.651Z,9.38
2023-03-06T09:39:26.477Z,9.39
2023-03-06T09:41:57.247Z,9.37
2023-03-06T09:44:29.421Z,9.36
2023-03-06T09:47:18.413Z,9.35
2023-03-06T09:50:11.757Z,9.33
2023-03-06T09:53:18.757Z,9.36
2023-03-06T09:55:56.784Z,9.41
2023-03-06T09:58:26.904Z,9.45
2023-03-06T10:01:03.396Z,9.41
2023-03-06T10:03:39.640Z,9.36
2023-03-06T10:06:13.120Z,9.40
2023-03-06T10:08:52.520Z,9.47
2023-03-06T10:11:28.239Z,9.48
2023-03-06T10:14:39.376Z,9.43
2023-03-06T10:17:20.305Z,9.34
2023-03-06T10:19:49.371Z,9.37
2023-03-06T10:22:29.184Z,9.43
2023-03-06T10:25:05.274Z,9.51
2023-03-06T10:27:44.960Z,9.53
2023-03-06T10:30:26.514Z,9.51
2023-03-06T10:32:59.842Z,9.51
2023-03-06T10:35:52.154Z,9.50
2023-03-06T10:38:28.068Z,9.51
2023-03-06T10:41:18.110Z,9.52
2023-03-06T10:44:06.675Z,9.52
2023-03-06T10:46:42.408Z,9.57
2023-03-06T10:49:34.886Z,9.60
2023-03-06T10:52:06.786Z,9.59
2023-03-06T10:54:41.276Z,9.57
2023-03-06T10:57:20.583Z,9.53
2023-03-06T10:59:57.877Z,9.48
2023-03-06T11:02:38.669Z,9.46
2023-03-06T11:05:19.724Z,9.36
2023-03-06T11:07:56.829Z,9.24
2023-03-06T11:10:25.294Z,9.20
2023-03-06T11:13:07.559Z,9.20
2023-03-06T11:15:35.596Z,9.18
2023-03-06T11:18:40.656Z,9.21
2023-03-06T11:21:31.446Z,9.23
2023-03-06T11:24:19.998Z,9.27
2023-03-06T11:26:58.377Z,9.27
2023-03-06T11:29:36.827Z,9.26
2023-03-06T11:32:44.099Z,9.31
2023-03-06T11:35:19.352Z,9.36
2023-03-06T11:37:58.326Z,9.37
2023-03-06T11:40:48.608Z,9.32
2023-03-06T11:43:38.230Z,9.31
2023-03-06T11:46:22.872Z,9.30
2023-03-06T11:49:13.740Z,9.30
2023-03-06T11:51:50.398Z,9.26
2023-03-06T11:54:18.411Z,9.22
2023-03-06T11:56:48.997Z,9.24
2023-03-06T11:59:38.310Z,9.20
2023-03-06T12:02:27.453Z,9.13
2023-03-06T12:05:14.237Z,9.04
2023-03-06T12:07:57.553Z,9.02
2023-03-06T12:10:38.636Z,9.03
2023-03-06T12:13:40.038Z,9.03
2023-03-06T12:16:35.972Z,9.01
2023-03-06T12:19:25.311Z,8.96
2023-03-06T12:22:17.865Z,8.88
2023-03-06T12:24:55.453Z,8.82
2023-03-06T12:28:15.758Z,8.77
2023-03-06T12:31:02.557Z,8.74
2023-03-06T12:33:43.177Z,8.76
2023-03-06T12:36:25.920Z,8.77
2023-03-06T12:39:03.186Z,8.75
2023-03-06T12:41:43.376Z,8.78
2023-03-06T12:44:26.965Z,8.83
2023-03-06T12:47:01.899Z,8.87
2023-03-06T12:49:38.642Z,8.97
2023-03-06T12:52:18.688Z,9.10
2023-03-06T12:54:50.426Z,9.17
2023-03-06T12:57:18.338Z,9.19
2023-03-06T12:59:48.784Z,9.24
2023-03-06T13:02:49.543Z,9.33
2023-03-06T13:05:26.860Z,9.41
2023-03-06T13:08:31.062Z,9.41
2023-03-06T13:11:23.676Z,9.39
2023-03-06T13:13:51.608Z,9.42
2023-03-06T13:16:45.670Z,9.41
2023-03-06T13:19:20.666Z,9.35
2023-03-06T13:21:54.619Z,9.32
2023-03-06T13:24:25.526Z,9.27
2023-03-06T13:26:57.792Z,9.24
2023-03-06T13:29:38.017Z,9.25
2023-03-06T13:32:15.165Z,9.31
2023-03-06T13:34:46.958Z,9.36
2023-03-06T13:37:18.580Z,9.38
2023-03-06T13:39:52.288Z,9.41
2023-03-06T13:42:27.905Z,9.40
2023-03-06T13:44:58.354Z,9.36
2023-03-06T13:48:15.562Z,9.31
2023-03-06T13:50:39.946Z,9.30
2023-03-06T13:53:37.828Z,9.27
2023-03-06T13:56:17.906Z,9.26
2023-03-06T13:59:07.868Z,9.22
2023-03-06T14:02:12.516Z,9.17
2023-03-06T14:04:57.570Z,9.12
2023-03-06T14:07:35.782Z,9.13
2023-03-06T14:10:20.882Z,9.08
2023-03-06T14:12:48.718Z,9.04
2023-03-06T14:15:18.948Z,9.02
2023-03-06T14:17:59.074Z,9.01
2023-03-06T14:21:01.050Z,9.05
2023-03-06T14:23:35.699Z,9.06
2023-03-06T14:26:03.634Z,9.07
2023-03-06T14:28:32.960Z,9.08
2023-03-06T14:31:03.523Z,9.11
2023-03-06T14:33:50.354Z,9.16
2023-03-06T14:36:21.625Z,9.14
2023-03-06T14:39:02.583Z,9.12
2023-03-06T14:41:33.613Z,9.05
2023-03-06T14:44:22.661Z,8.98
2023-03-06T14:46:56.432Z,8.92
2023-03-06T14:49:26.334Z,8.91
2023-03-06T14:52:00.544Z,8.86
2023-03-06T14:54:31.663Z,8.73
2023-03-06T14:57:13.206Z,8.60
2023-03-06T14:59:47.482Z,8.54
2023-03-06T15:02:22.815Z,8.50
2023-03-06T15:05:13.767Z,8.43
2023-03-06T15:07:42.797Z,8.31
2023-03-06T15:10:22.559Z,8.25
2023-03-06T15:12:50.534Z,8.15
2023-03-06T15:15:18.572Z,8.01
2023-03-06T15:17:47.621Z,7.94
2023-03-06T15:20:53.722Z,7.90
2023-03-06T15:23:34.309Z,7.82
2023-03-06T15:26:29.632Z,7.66
2023-03-06T15:29:08.962Z,7.44
2023-03-06T15:31:39.751Z,7.32
2023-03-06T15:34:07.871Z,7.30
2023-03-06T15:36:38.775Z,7.31
2023-03-06T15:39:29.966Z,7.30
2023-03-06T15:42:00.436Z,7.27
2023-03-06T15:44:32.428Z,7.17
2023-03-06T15:47:08.476Z,7.10
2023-03-06T15:49:38.867Z,7.04
2023-03-06T15:52:07.583Z,6.95
2023-03-06T15:54:36.466Z,6.86
2023-03-06T15:57:08.152Z,6.78
2023-03-06T15:59:42.936Z,6.68
2023-03-06T16:02:18.534Z,6.58
2023-03-06T16:04:46.967Z,6.53
2023-03-06T16:07:15.064Z,6.49
2023-03-06T16:09:43.554Z,6.46
2023-03-06T16:12:17.918Z,6.41
2023-03-06T16:14:47.680Z,6.33
2023-03-06T16:17:16.002Z,6.27
2023-03-06T16:19:44.189Z,6.21
2023-03-06T16:22:12.249Z,6.17
2023-03-06T16:24:40.163Z,6.15
2023-03-06T16:27:17.630Z,6.09
2023-03-06T16:29:45.554Z,6.05
2023-03-06T16:32:13.546Z,6.04
2023-03-06T16:34:41.694Z,6.06
2023-03-06T16:37:12.925Z,6.05
2023-03-06T16:39:40.862Z,6.01
2023-03-06T16:42:08.889Z,5.98
2023-03-06T16:44:36.882Z,5.95
2023-03-06T16:47:04.899Z,5.90
2023-03-06T16:49:32.862Z,5.83
2023-03-06T16:52:01.029Z,5.76
2023-03-06T16:54:28.939Z,5.68
2023-03-06T16:56:57.218Z,5.62
2023-03-06T16:59:25.409Z,5.55
2023-03-06T17:01:53.276Z,5.48
2023-03-06T17:04:21.311Z,5.43
2023-03-06T17:06:49.266Z,5.38
2023-03-06T17:09:17.464Z,5.32
2023-03-06T17:11:46.804Z,5.27
2023-03-06T17:14:15.011Z,5.22
2023-03-06T17:16:43.111Z,5.18
2023-03-06T17:19:16.297Z,5.11
2023-03-06T17:21:44.351Z,5.03
2023-03-06T17:24:12.296Z,4.97
2023-03-06T17:26:40.269Z,4.91
2023-03-06T17:29:09.567Z,4.87
2023-03-06T17:31:37.801Z,4.82
2023-03-06T17:34:05.764Z,4.77
2023-03-06T17:36:34.585Z,4.73
2023-03-06T17:39:03.428Z,4.68
2023-03-06T17:41:32.879Z,4.62
2023-03-06T17:44:01.899Z,4.56
2023-03-06T17:46:32.273Z,4.50
2023-03-06T17:49:00.470Z,4.47
2023-03-06T17:51:28.634Z,4.43
2023-03-06T17:53:57.458Z,4.38
2023-03-06T17:56:26.340Z,4.31
2023-03-06T17:58:54.605Z,4.25
2023-03-06T18:01:27.593Z,4.21
2023-03-06T18:03:56.299Z,4.17
2023-03-06T18:06:27.517Z,4.14
2023-03-06T18:08:55.512Z,4.11
2023-03-06T18:11:23.502Z,4.11
2023-03-06T18:13:51.558Z,4.11
2023-03-06T18:16:23.031Z,4.11
2023-03-06T18:18:53.006Z,4.10
2023-03-06T18:21:21.744Z,4.09
2023-03-06T18:23:50.602Z,4.09
2023-03-06T18:26:25.395Z,4.10
2023-03-06T18:29:01.298Z,4.12
2023-03-06T18:31:34.428Z,4.13
2023-03-06T18:34:09.262Z,4.14
2023-03-06T18:36:37.934Z,4.16
2023-03-06T18:39:08.914Z,4.17
2023-03-06T18:41:37.776Z,4.17
2023-03-06T18:44:06.573Z,4.19
2023-03-06T18:46:37.628Z,4.20
2023-03-06T18:49:06.045Z,4.24
2023-03-06T18:51:34.763Z,4.26
2023-03-06T18:54:04.329Z,4.26
2023-03-06T18:56:33.113Z,4.23
2023-03-06T18:59:04.925Z,4.24
2023-03-06T19:01:34.462Z,4.24
2023-03-06T19:04:04.614Z,4.24
2023-03-06T19:06:33.169Z,4.24
2023-03-06T19:09:02.303Z,4.24
2023-03-06T19:11:31.013Z,4.23
2023-03-06T19:13:59.842Z,4.23
2023-03-06T19:16:29.657Z,4.23
2023-03-06T19:18:58.066Z,4.22
2023-03-06T19:21:27.704Z,4.20
2023-03-06T19:23:57.246Z,4.19
2023-03-06T19:26:25.300Z,4.17
2023-03-06T19:28:53.197Z,4.16
2023-03-06T19:31:25.273Z,4.14
2023-03-06T19:33:54.930Z,4.11
2023-03-06T19:36:26.922Z,4.09
2023-03-06T19:38:56.715Z,4.05
2023-03-06T19:41:25.483Z,3.97
2023-03-06T19:43:55.979Z,3.92
2023-03-06T19:46:24.895Z,3.90
2023-03-06T19:48:58.790Z,3.87
2023-03-06T19:51:27.453Z,3.84
2023-03-06T19:53:56.972Z,3.84
2023-03-06T19:56:28.317Z,3.82
2023-03-06T19:58:56.772Z,3.79
2023-03-06T20:01:26.375Z,3.75
2023-03-06T20:03:59.395Z,3.72
2023-03-06T20:06:30.291Z,3.69
2023-03-06T20:08:58.443Z,3.65
2023-03-06T20:11:29.967Z,3.59
2023-03-06T20:14:00.137Z,3.55
2023-03-06T20:16:29.124Z,3.54
2023-03-06T20:19:00.201Z,3.50
2023-03-06T20:21:30.762Z,3.46
2023-03-06T20:23:59.124Z,3.41
2023-03-06T20:26:28.599Z,3.35
2023-03-06T20:28:57.129Z,3.25
2023-03-06T20:31:27.475Z,3.17
2023-03-06T20:33:57.523Z,3.14
2023-03-06T20:36:31.325Z,3.11
2023-03-06T20:39:01.383Z,3.09
2023-03-06T20:41:31.416Z,3.03
2023-03-06T20:44:02.539Z,2.99
2023-03-06T20:46:31.261Z,2.97
2023-03-06T20:48:59.669Z,2.95
2023-03-06T20:51:31.549Z,2.94
2023-03-06T20:54:01.346Z,2.94
2023-03-06T20:56:32.185Z,2.94
2023-03-06T20:59:00.456Z,2.96
2023-03-06T21:01:38.371Z,2.99
2023-03-06T21:04:07.026Z,3.01
2023-03-06T21:06:34.927Z,2.98
2023-03-06T21:09:04.863Z,2.96
2023-03-06T21:11:34.723Z,2.93
2023-03-06T21:14:03.161Z,2.91
2023-03-06T21:16:31.666Z,2.87
2023-03-06T21:19:00.497Z,2.85
2023-03-06T21:21:31.416Z,2.82
2023-03-06T21:24:00.630Z,2.78
2023-03-06T21:26:31.488Z,2.76
2023-03-06T21:28:59.467Z,2.80
2023-03-06T21:31:28.710Z,2.81
2023-03-06T21:33:57.476Z,2.81
2023-03-06T21:36:26.065Z,2.78
2023-03-06T21:38:54.652Z,2.74
2023-03-06T21:41:28.580Z,2.71
2023-03-06T21:43:58.461Z,2.74
2023-03-06T21:46:27.690Z,2.79
2023-03-06T21:48:56.634Z,2.82
2023-03-06T21:51:25.445Z,2.83
2023-03-06T21:53:54.523Z,2.85
2023-03-06T21:56:25.554Z,2.86
2023-03-06T21:58:54.339Z,2.85
2023-03-06T22:01:25.553Z,2.81
2023-03-06T22:03:53.607Z,2.82
2023-03-06T22:06:26.971Z,2.83
2023-03-06T22:08:56.193Z,2.86
2023-03-06T22:11:25.450Z,2.91
2023-03-06T22:13:53.552Z,2.96
2023-03-06T22:16:21.797Z,3.00
2023-03-06T22:18:51.440Z,3.08
2023-03-06T22:21:21.923Z,3.11
2023-03-06T22:23:51.481Z,3.16
2023-03-06T22:26:19.847Z,3.19
2023-03-06T22:28:47.756Z,3.21
2023-03-06T22:31:19.286Z,3.23
2023-03-06T22:33:49.835Z,3.22
2023-03-06T22:36:18.359Z,3.22
2023-03-06T22:38:47.662Z,3.22
2023-03-06T22:41:17.378Z,3.23
2023-03-06T22:43:45.241Z,3.23
2023-03-06T22:46:16.316Z,3.22
2023-03-06T22:48:44.729Z,3.20
2023-03-06T22:51:16.154Z,3.17
2023-03-06T22:53:44.993Z,3.14
2023-03-06T22:56:15.874Z,3.11
2023-03-06T22:58:44.995Z,3.06
2023-03-06T23:01:16.444Z,2.98
2023-03-06T23:03:47.130Z,2.93
2023-03-06T23:06:18.390Z,2.90
2023-03-06T23:09:10.750Z,2.87
2023-03-06T23:11:57.128Z,2.84
2023-03-06T23:14:44.901Z,2.83
2023-03-06T23:17:31.510Z,2.81
2023-03-06T23:20:18.419Z,2.80
2023-03-06T23:23:05.050Z,2.78
2023-03-06T23:25:42.665Z,2.78
2023-03-06T23:28:11.417Z,2.79
2023-03-06T23:30:40.280Z,2.79
2023-03-06T23:33:09.040Z,2.79
2023-03-06T23:35:39.124Z,2.79
2023-03-06T23:38:07.364Z,2.82
2023-03-06T23:40:36.899Z,2.85
2023-03-06T23:43:05.247Z,2.86
2023-03-06T23:45:33.408Z,2.87
2023-03-06T23:48:01.260Z,2.88
2023-03-06T23:50:29.205Z,2.93
2023-03-06T23:52:57.063Z,2.96
2023-03-06T23:55:24.931Z,2.98
2023-03-06T23:57:52.825Z,3.01
